EGAE/LDY METAR and TAF weather

Enter ICAO airport designator
Station Type Date Time Source
EGAE METAR 2020/07/14 19:20 UTC NOAA

EGAE 141920Z 26012KT 4500 -RADZ FEW004 BKN007 BKN037 14/13 Q1014


Station Type Date Time Source
EGAE Decoded METAR 2020/07/14 19:20 UTC NOAA

Eglinton / Londonderr, United Kingdom (EGAE) 55-03N 007-09W
Jul 14, 2020 - 03:20 PM EDT / 2020.07.14 1920 UTC
Wind: from the W (260 degrees) at 14 MPH (12 KT):0
Visibility: 2 mile(s):0
Sky conditions: mostly cloudy
Weather: light rain, drizzle
Temperature: 57 F (14 C)
Dew Point: 55 F (13 C)
Relative Humidity: 93%
Pressure (altimeter): 29.94 in. Hg (1014 hPa)
ob: EGAE 141920Z 26012KT 4500 -RADZ FEW004 BKN007 BKN037 14/13 Q1014
cycle: 19

Station Type Date Time Source
EGAE TAF UTC NOAA

Error!

Example: see airport list